createdAt,value
2022-09-14T00:01:23.569Z,22.90
2022-09-14T00:03:46.609Z,22.90
2022-09-14T00:06:15.244Z,22.90
2022-09-14T00:08:43.237Z,22.90
2022-09-14T00:11:13.092Z,22.90
2022-09-14T00:13:43.103Z,22.90
2022-09-14T00:16:18.990Z,22.90
2022-09-14T00:18:50.063Z,22.90
2022-09-14T00:21:16.809Z,22.90
2022-09-14T00:23:43.533Z,22.90
2022-09-14T00:26:14.316Z,22.90
2022-09-14T00:28:52.338Z,22.90
2022-09-14T00:31:20.215Z,22.80
2022-09-14T00:33:48.500Z,22.80
2022-09-14T00:36:21.055Z,22.80
2022-09-14T00:38:48.178Z,22.80
2022-09-14T00:41:21.984Z,22.80
2022-09-14T00:43:57.704Z,22.80
2022-09-14T00:46:26.331Z,22.80
2022-09-14T00:48:54.549Z,22.80
2022-09-14T00:51:22.409Z,22.80
2022-09-14T00:53:49.729Z,22.80
2022-09-14T00:56:16.599Z,22.80
2022-09-14T00:58:45.854Z,22.80
2022-09-14T01:01:13.290Z,22.80
2022-09-14T01:03:40.069Z,22.80
2022-09-14T01:06:26.258Z,22.80
2022-09-14T01:09:02.870Z,22.80
2022-09-14T01:11:42.533Z,22.80
2022-09-14T01:14:36.745Z,22.80
2022-09-14T01:17:12.623Z,22.80
2022-09-14T01:19:42.018Z,22.80
2022-09-14T01:22:23.462Z,22.80
2022-09-14T01:24:57.235Z,22.70
2022-09-14T01:27:41.705Z,22.70
2022-09-14T01:30:19.561Z,22.70
2022-09-14T01:32:51.996Z,22.70
2022-09-14T01:35:27.803Z,22.70
2022-09-14T01:38:01.810Z,22.70
2022-09-14T01:40:30.988Z,22.70
2022-09-14T01:43:10.778Z,22.70
2022-09-14T01:45:45.793Z,22.70
2022-09-14T01:48:14.786Z,22.70
2022-09-14T01:50:45.902Z,22.70
2022-09-14T01:53:21.455Z,22.70
2022-09-14T01:55:57.089Z,22.70
2022-09-14T01:58:31.359Z,22.70
2022-09-14T02:01:02.903Z,22.70
2022-09-14T02:03:37.272Z,22.70
2022-09-14T02:06:16.989Z,22.70
2022-09-14T02:08:43.799Z,22.70
2022-09-14T02:11:10.735Z,22.70
2022-09-14T02:13:37.530Z,22.70
2022-09-14T02:16:04.600Z,22.70
2022-09-14T02:18:31.751Z,22.70
2022-09-14T02:21:02.955Z,22.70
2022-09-14T02:23:30.275Z,22.70
2022-09-14T02:25:57.887Z,22.70
2022-09-14T02:28:24.710Z,22.70
2022-09-14T02:31:03.555Z,22.60
2022-09-14T02:33:40.831Z,22.70
2022-09-14T02:36:39.816Z,22.60
2022-09-14T02:39:12.362Z,22.60
2022-09-14T02:41:54.044Z,22.60
2022-09-14T02:44:35.274Z,22.60
2022-09-14T02:47:18.156Z,22.60
2022-09-14T02:50:05.425Z,22.60
2022-09-14T02:52:36.757Z,22.60
2022-09-14T02:55:16.263Z,22.60
2022-09-14T02:58:03.530Z,22.60
2022-09-14T03:00:32.728Z,22.60
2022-09-14T03:02:59.502Z,22.60
2022-09-14T03:05:26.667Z,22.60
2022-09-14T03:07:53.678Z,22.60
2022-09-14T03:10:20.529Z,22.60
2022-09-14T03:12:47.288Z,22.60
2022-09-14T03:15:14.103Z,22.60
2022-09-14T03:17:45.842Z,22.60
2022-09-14T03:20:13.344Z,22.60
2022-09-14T03:22:40.072Z,22.60
2022-09-14T03:25:07.443Z,22.60
2022-09-14T03:27:34.253Z,22.60
2022-09-14T03:30:01.005Z,22.60
2022-09-14T03:32:27.757Z,22.60
2022-09-14T03:34:54.527Z,22.60
2022-09-14T03:37:21.226Z,22.60
2022-09-14T03:39:48.003Z,22.60
2022-09-14T03:42:14.722Z,22.50
2022-09-14T03:44:41.424Z,22.50
2022-09-14T03:47:08.717Z,22.50
2022-09-14T03:49:35.519Z,22.60
2022-09-14T03:52:03.579Z,22.50
2022-09-14T03:54:30.440Z,22.50
2022-09-14T03:56:57.157Z,22.50
2022-09-14T03:59:23.863Z,22.50
2022-09-14T04:01:50.728Z,22.50
2022-09-14T04:04:17.483Z,22.50
2022-09-14T04:06:44.229Z,22.50
2022-09-14T04:09:10.968Z,22.50
2022-09-14T04:11:37.698Z,22.50
2022-09-14T04:14:05.943Z,22.50
2022-09-14T04:16:32.729Z,22.50
2022-09-14T04:18:59.544Z,22.50
2022-09-14T04:21:26.813Z,22.50
2022-09-14T04:24:15.179Z,22.50
2022-09-14T04:26:42.549Z,22.50
2022-09-14T04:29:11.112Z,22.50
2022-09-14T04:31:37.823Z,22.50
2022-09-14T04:34:05.107Z,22.50
2022-09-14T04:36:31.968Z,22.50
2022-09-14T04:39:01.210Z,22.50
2022-09-14T04:41:29.110Z,22.50
2022-09-14T04:43:57.119Z,22.40
2022-09-14T04:46:29.800Z,22.50
2022-09-14T04:48:56.803Z,22.50
2022-09-14T04:51:27.850Z,22.40
2022-09-14T04:53:59.411Z,22.30
2022-09-14T04:56:27.992Z,22.30
2022-09-14T04:58:59.359Z,22.30
2022-09-14T05:01:29.456Z,22.40
2022-09-14T05:03:56.544Z,22.30
2022-09-14T05:06:26.599Z,22.30
2022-09-14T05:08:54.689Z,22.30
2022-09-14T05:11:24.485Z,22.30
2022-09-14T05:13:51.980Z,22.30
2022-09-14T05:16:21.535Z,22.30
2022-09-14T05:18:49.157Z,22.30
2022-09-14T05:21:18.985Z,22.30
2022-09-14T05:23:46.422Z,22.30
2022-09-14T05:26:14.367Z,22.30
2022-09-14T05:28:41.253Z,22.30
2022-09-14T05:31:10.550Z,22.30
2022-09-14T05:33:37.407Z,22.40
2022-09-14T05:36:06.470Z,22.30
2022-09-14T05:38:35.088Z,22.30
2022-09-14T05:41:02.124Z,22.40
2022-09-14T05:43:29.951Z,22.30
2022-09-14T05:45:56.737Z,22.40
2022-09-14T05:48:23.520Z,22.40
2022-09-14T05:50:59.181Z,22.40
2022-09-14T05:53:25.985Z,22.30
2022-09-14T05:56:09.464Z,22.40
2022-09-14T05:58:37.518Z,22.40
2022-09-14T06:01:09.436Z,22.30
2022-09-14T06:03:36.589Z,22.30
2022-09-14T06:06:05.065Z,22.30
2022-09-14T06:08:32.285Z,22.40
2022-09-14T06:11:10.711Z,22.40
2022-09-14T06:13:37.890Z,22.40
2022-09-14T06:16:12.784Z,22.40
2022-09-14T06:18:41.067Z,22.30
2022-09-14T06:21:09.475Z,22.30
2022-09-14T06:23:36.851Z,22.30
2022-09-14T06:26:05.005Z,22.30
2022-09-14T06:28:33.033Z,22.20
2022-09-14T06:31:00.084Z,22.10
2022-09-14T06:33:26.917Z,22.10
2022-09-14T06:36:09.709Z,22.00
2022-09-14T06:38:36.546Z,22.00
2022-09-14T06:41:06.329Z,22.00
2022-09-14T06:43:35.929Z,22.00
2022-09-14T06:46:09.639Z,22.00
2022-09-14T06:48:45.920Z,22.00
2022-09-14T06:51:21.654Z,22.00
2022-09-14T06:53:49.962Z,21.90
2022-09-14T06:56:18.149Z,21.90
2022-09-14T06:58:44.874Z,21.90
2022-09-14T07:01:14.965Z,21.90
2022-09-14T07:03:47.078Z,21.90
2022-09-14T07:06:16.697Z,21.80
2022-09-14T07:08:44.063Z,21.80
2022-09-14T07:11:12.337Z,21.80
2022-09-14T07:13:39.659Z,21.80
2022-09-14T07:16:07.996Z,21.90
2022-09-14T07:18:35.835Z,21.80
2022-09-14T07:21:12.035Z,21.80
2022-09-14T07:23:40.898Z,21.80
2022-09-14T07:26:31.823Z,21.90
2022-09-14T07:29:01.789Z,21.90
2022-09-14T07:31:35.051Z,21.90
2022-09-14T07:34:03.582Z,21.90
2022-09-14T07:36:34.844Z,21.90
2022-09-14T07:39:04.729Z,21.90
2022-09-14T07:41:34.078Z,21.90
2022-09-14T07:44:02.846Z,21.90
2022-09-14T07:46:33.281Z,21.90
2022-09-14T07:49:02.285Z,21.90
2022-09-14T07:51:30.594Z,21.90
2022-09-14T07:53:58.042Z,21.90
2022-09-14T07:56:25.833Z,22.00
2022-09-14T07:59:11.488Z,21.90
2022-09-14T08:01:46.517Z,22.00
2022-09-14T08:04:13.311Z,21.90
2022-09-14T08:06:40.518Z,22.00
2022-09-14T08:09:11.225Z,22.00
2022-09-14T08:11:38.730Z,22.00
2022-09-14T08:14:09.907Z,22.00
2022-09-14T08:16:38.692Z,21.90
2022-09-14T08:19:10.846Z,22.00
2022-09-14T08:21:38.557Z,22.00
2022-09-14T08:24:07.396Z,22.00
2022-09-14T08:26:36.472Z,22.00
2022-09-14T08:29:04.937Z,22.00
2022-09-14T08:31:35.865Z,22.00
2022-09-14T08:34:04.784Z,22.00
2022-09-14T08:36:34.362Z,22.00
2022-09-14T08:39:01.775Z,22.00
2022-09-14T08:41:35.082Z,22.00
2022-09-14T08:44:28.066Z,22.00
2022-09-14T08:46:58.021Z,22.00
2022-09-14T08:49:41.110Z,22.00
2022-09-14T08:52:23.109Z,22.00
2022-09-14T08:54:54.265Z,22.00
2022-09-14T08:57:43.237Z,22.00
2022-09-14T09:00:14.027Z,22.00
2022-09-14T09:02:51.353Z,22.00
2022-09-14T09:05:27.542Z,22.00
2022-09-14T09:08:19.665Z,22.00
2022-09-14T09:10:47.658Z,22.00
2022-09-14T09:13:19.724Z,22.00
2022-09-14T09:16:00.669Z,22.00
2022-09-14T09:18:41.487Z,22.00
2022-09-14T09:21:18.236Z,22.10
2022-09-14T09:23:45.324Z,22.00
2022-09-14T09:26:30.963Z,22.00
2022-09-14T09:29:00.551Z,22.00
2022-09-14T09:31:38.005Z,22.00
2022-09-14T09:34:05.557Z,22.00
2022-09-14T09:36:39.262Z,22.00
2022-09-14T09:39:06.812Z,22.00
2022-09-14T09:42:17.124Z,22.00
2022-09-14T09:45:05.968Z,22.00
2022-09-14T09:47:35.588Z,21.90
2022-09-14T09:50:06.952Z,22.00
2022-09-14T09:52:34.699Z,22.00
2022-09-14T09:55:04.310Z,22.00
2022-09-14T09:57:33.672Z,22.00
2022-09-14T10:00:20.478Z,22.00
2022-09-14T10:02:47.546Z,22.00
2022-09-14T10:05:14.188Z,22.00
2022-09-14T10:07:50.609Z,21.90
2022-09-14T10:10:26.808Z,21.90
2022-09-14T10:12:56.432Z,21.90
2022-09-14T10:15:34.798Z,21.90
2022-09-14T10:18:01.571Z,21.90
2022-09-14T10:20:28.625Z,21.90
2022-09-14T10:22:55.475Z,21.90
2022-09-14T10:25:25.321Z,21.90
2022-09-14T10:27:55.173Z,21.90
2022-09-14T10:30:25.169Z,22.00
2022-09-14T10:33:04.614Z,21.90
2022-09-14T10:35:58.992Z,22.00
2022-09-14T10:38:53.473Z,22.00
2022-09-14T10:41:40.017Z,22.00
2022-09-14T10:44:25.769Z,21.90
2022-09-14T10:47:34.367Z,21.90
2022-09-14T10:50:28.590Z,21.90
2022-09-14T10:53:24.219Z,22.50
2022-09-14T10:56:06.254Z,21.90
2022-09-14T10:58:48.144Z,21.90
2022-09-14T11:01:56.770Z,22.00
2022-09-14T11:04:45.239Z,22.00
2022-09-14T11:07:20.699Z,22.00
2022-09-14T11:10:08.549Z,22.00
2022-09-14T11:13:05.549Z,22.00
2022-09-14T11:15:43.900Z,21.90
2022-09-14T11:18:35.356Z,21.80
2022-09-14T11:21:13.966Z,21.90
2022-09-14T11:23:49.131Z,21.90
2022-09-14T11:26:25.484Z,21.80
2022-09-14T11:29:13.122Z,21.80
2022-09-14T11:32:20.412Z,21.90
2022-09-14T11:34:56.064Z,21.90
2022-09-14T11:37:32.985Z,21.90
2022-09-14T11:40:10.308Z,21.80
2022-09-14T11:42:48.302Z,21.80
2022-09-14T11:45:24.746Z,21.70
2022-09-14T11:48:41.896Z,21.70
2022-09-14T11:51:22.420Z,21.70
2022-09-14T11:53:50.744Z,21.70
2022-09-14T11:56:37.831Z,21.60
2022-09-14T11:59:07.236Z,21.50
2022-09-14T12:01:42.882Z,21.40
2022-09-14T12:04:15.454Z,21.40
2022-09-14T12:06:51.011Z,21.30
2022-09-14T12:09:17.930Z,21.30
2022-09-14T12:11:45.605Z,21.30
2022-09-14T12:14:24.532Z,21.40
2022-09-14T12:17:39.286Z,21.40
2022-09-14T12:20:37.838Z,21.50
2022-09-14T12:23:13.313Z,21.50
2022-09-14T12:25:53.163Z,21.50
2022-09-14T12:28:35.209Z,21.60
2022-09-14T12:31:04.997Z,21.60
2022-09-14T12:33:31.875Z,21.60
2022-09-14T12:36:31.369Z,21.60
2022-09-14T12:38:58.041Z,21.60
2022-09-14T12:41:24.706Z,21.60
2022-09-14T12:43:51.562Z,21.60
2022-09-14T12:46:21.508Z,21.60
2022-09-14T12:48:48.335Z,21.60
2022-09-14T12:51:27.187Z,21.70
2022-09-14T12:54:09.011Z,21.70
2022-09-14T12:56:54.217Z,21.70
2022-09-14T12:59:38.945Z,21.70
2022-09-14T13:02:47.609Z,21.70
2022-09-14T13:05:18.107Z,21.70
2022-09-14T13:07:46.027Z,21.80
2022-09-14T13:10:36.041Z,21.70
2022-09-14T13:13:16.587Z,21.70
2022-09-14T13:15:56.218Z,21.60
2022-09-14T13:18:22.957Z,21.70
2022-09-14T13:20:51.630Z,21.70
2022-09-14T13:23:28.687Z,21.70
2022-09-14T13:25:56.036Z,21.80
2022-09-14T13:28:26.666Z,21.80
2022-09-14T13:30:58.922Z,21.80
2022-09-14T13:33:25.727Z,21.80
2022-09-14T13:35:55.475Z,21.80
2022-09-14T13:38:29.582Z,21.80
2022-09-14T13:41:04.528Z,21.80
2022-09-14T13:43:31.363Z,21.80
2022-09-14T13:45:58.560Z,21.80
2022-09-14T13:48:25.451Z,21.80
2022-09-14T13:50:52.709Z,21.70
2022-09-14T13:53:40.350Z,21.70
2022-09-14T13:56:17.731Z,21.70
2022-09-14T13:58:45.650Z,21.70
2022-09-14T14:01:13.229Z,21.70
2022-09-14T14:03:49.129Z,21.60
2022-09-14T14:06:26.951Z,21.60
2022-09-14T14:08:58.397Z,21.60
2022-09-14T14:11:41.157Z,21.60
2022-09-14T14:14:22.356Z,21.50
2022-09-14T14:17:22.039Z,21.50
2022-09-14T14:19:50.794Z,21.50
2022-09-14T14:22:19.061Z,21.50
2022-09-14T14:27:37.734Z,21.60
2022-09-14T14:30:13.210Z,21.70
2022-09-14T14:32:39.987Z,21.80
2022-09-14T14:35:18.407Z,21.80
2022-09-14T14:37:45.165Z,21.90
2022-09-14T14:40:12.671Z,21.90
2022-09-14T14:42:41.373Z,21.90
2022-09-14T14:45:15.021Z,21.90
2022-09-14T14:47:41.812Z,21.90
2022-09-14T14:50:17.131Z,21.90
2022-09-14T14:52:43.964Z,21.90
2022-09-14T14:55:10.983Z,21.90
2022-09-14T14:57:40.702Z,21.90
2022-09-14T15:00:14.420Z,21.90
2022-09-14T15:02:41.486Z,21.90
2022-09-14T15:05:08.399Z,21.90
2022-09-14T15:07:37.736Z,22.00
2022-09-14T15:10:05.639Z,22.00
2022-09-14T15:12:33.222Z,22.00
2022-09-14T15:15:00.639Z,22.00
2022-09-14T15:17:27.388Z,22.00
2022-09-14T15:19:54.100Z,22.00
2022-09-14T15:22:20.953Z,22.00
2022-09-14T15:24:47.949Z,22.00
2022-09-14T15:27:14.876Z,22.00
2022-09-14T15:29:41.757Z,22.00
2022-09-14T15:32:08.562Z,22.00
2022-09-14T15:34:35.369Z,22.00
2022-09-14T15:37:02.269Z,22.00
2022-09-14T15:39:31.233Z,22.00
2022-09-14T15:41:58.286Z,22.00
2022-09-14T15:44:25.171Z,22.00
2022-09-14T15:46:52.936Z,22.00
2022-09-14T15:49:24.122Z,22.00
2022-09-14T15:51:53.492Z,22.00
2022-09-14T15:54:23.116Z,22.00
2022-09-14T15:56:53.849Z,22.00
2022-09-14T15:59:21.721Z,22.00
2022-09-14T16:01:48.922Z,22.00
2022-09-14T16:04:17.548Z,21.90
2022-09-14T16:06:44.956Z,21.90
2022-09-14T16:09:13.318Z,21.90
2022-09-14T16:11:40.743Z,21.90
2022-09-14T16:14:09.167Z,22.00
2022-09-14T16:16:37.283Z,22.00
2022-09-14T16:19:09.660Z,22.00
2022-09-14T16:21:36.612Z,22.00
2022-09-14T16:24:05.313Z,22.00
2022-09-14T16:26:35.116Z,22.00
2022-09-14T16:29:02.278Z,22.00
2022-09-14T16:31:32.357Z,22.00
2022-09-14T16:34:02.279Z,22.00
2022-09-14T16:36:31.974Z,22.00
2022-09-14T16:39:01.449Z,22.00
2022-09-14T16:41:28.988Z,22.00
2022-09-14T16:44:00.418Z,22.00
2022-09-14T16:46:29.767Z,22.00
2022-09-14T16:48:58.650Z,22.00
2022-09-14T16:51:28.114Z,22.00
2022-09-14T16:53:54.910Z,22.00
2022-09-14T16:56:36.871Z,22.00
2022-09-14T16:59:04.741Z,22.00
2022-09-14T17:01:34.611Z,22.00
2022-09-14T17:04:05.346Z,22.00
2022-09-14T17:06:32.930Z,22.00
2022-09-14T17:09:04.020Z,22.00
2022-09-14T17:11:33.073Z,22.00
2022-09-14T17:14:00.251Z,22.00
2022-09-14T17:16:28.590Z,22.00
2022-09-14T17:18:59.202Z,22.00
2022-09-14T17:21:35.650Z,22.00
2022-09-14T17:24:04.525Z,22.00
2022-09-14T17:26:31.664Z,22.00
2022-09-14T17:28:59.634Z,22.00
2022-09-14T17:31:29.449Z,22.00
2022-09-14T17:33:58.245Z,22.00
2022-09-14T17:36:25.380Z,22.00
2022-09-14T17:38:55.074Z,22.00
2022-09-14T17:41:23.402Z,22.00
2022-09-14T17:43:55.225Z,22.00
2022-09-14T17:46:22.614Z,22.00
2022-09-14T17:48:51.127Z,22.00
2022-09-14T17:51:24.292Z,22.00
2022-09-14T17:53:53.767Z,21.90
2022-09-14T17:56:23.078Z,21.90
2022-09-14T17:59:00.699Z,21.90
2022-09-14T18:01:28.337Z,22.00
2022-09-14T18:04:01.152Z,21.90
2022-09-14T18:06:34.374Z,21.90
2022-09-14T18:09:05.912Z,21.90
2022-09-14T18:11:33.190Z,21.90
2022-09-14T18:14:00.305Z,21.90
2022-09-14T18:16:27.912Z,21.90
2022-09-14T18:18:57.201Z,21.90
2022-09-14T18:21:25.190Z,21.90
2022-09-14T18:23:53.122Z,21.90
2022-09-14T18:26:20.488Z,21.90
2022-09-14T18:28:47.769Z,21.90
2022-09-14T18:31:16.266Z,21.90
2022-09-14T18:34:09.122Z,21.90
2022-09-14T18:36:36.891Z,22.00
2022-09-14T18:39:03.756Z,21.90
2022-09-14T18:41:33.928Z,21.90
2022-09-14T18:44:01.904Z,21.90
2022-09-14T18:46:29.001Z,21.90
2022-09-14T18:49:00.265Z,21.90
2022-09-14T18:51:28.871Z,21.90
2022-09-14T18:54:01.120Z,21.90
2022-09-14T18:56:29.119Z,21.90
2022-09-14T18:58:56.264Z,21.90
2022-09-14T19:01:23.012Z,21.90
2022-09-14T19:03:50.087Z,21.90
2022-09-14T19:06:18.511Z,21.90
2022-09-14T19:08:46.051Z,21.90
2022-09-14T19:11:18.611Z,21.90
2022-09-14T19:13:46.714Z,21.90
2022-09-14T19:16:18.808Z,21.90
2022-09-14T19:18:47.367Z,21.90
2022-09-14T19:21:23.371Z,21.90
2022-09-14T19:23:57.184Z,21.90
2022-09-14T19:26:24.042Z,21.90
2022-09-14T19:28:51.106Z,21.90
2022-09-14T19:31:20.298Z,21.90
2022-09-14T19:33:47.185Z,21.90
2022-09-14T19:36:22.523Z,21.80
2022-09-14T19:38:51.454Z,21.80
2022-09-14T19:41:19.530Z,21.80
2022-09-14T19:43:46.509Z,21.80
2022-09-14T19:46:19.776Z,21.80
2022-09-14T19:48:47.137Z,21.80
2022-09-14T19:51:25.418Z,21.70
2022-09-14T19:53:54.425Z,21.70
2022-09-14T19:56:25.510Z,21.80
2022-09-14T19:58:54.259Z,21.80
2022-09-14T20:01:23.047Z,21.70
2022-09-14T20:03:50.294Z,21.80
2022-09-14T20:06:31.411Z,21.80
2022-09-14T20:09:03.922Z,21.80
2022-09-14T20:11:32.360Z,21.80
2022-09-14T20:14:01.416Z,21.80
2022-09-14T20:16:34.202Z,21.80
2022-09-14T20:19:06.872Z,21.80
2022-09-14T20:21:36.036Z,21.80
2022-09-14T20:24:19.254Z,21.80
2022-09-14T20:26:47.906Z,21.80
2022-09-14T20:29:16.216Z,21.80
2022-09-14T20:31:43.367Z,21.80
2022-09-14T20:34:10.522Z,21.80
2022-09-14T20:36:37.496Z,21.90
2022-09-14T20:39:04.952Z,21.90
2022-09-14T20:41:33.901Z,21.80
2022-09-14T20:44:01.151Z,21.80
2022-09-14T20:46:31.626Z,21.80
2022-09-14T20:48:58.652Z,21.80
2022-09-14T20:51:25.880Z,21.80
2022-09-14T20:53:53.332Z,21.80
2022-09-14T20:56:23.075Z,21.90
2022-09-14T20:58:54.124Z,21.80
2022-09-14T21:01:24.499Z,21.70
2022-09-14T21:03:51.873Z,21.70
2022-09-14T21:06:22.065Z,21.70
2022-09-14T21:08:49.561Z,21.70
2022-09-14T21:11:19.550Z,21.70
2022-09-14T21:13:47.238Z,21.80
2022-09-14T21:16:26.368Z,21.70
2022-09-14T21:18:59.528Z,21.70
2022-09-14T21:21:27.090Z,21.70
2022-09-14T21:23:55.925Z,21.70
2022-09-14T21:26:23.893Z,21.70
2022-09-14T21:28:57.563Z,21.60
2022-09-14T21:31:25.803Z,21.70
2022-09-14T21:33:58.420Z,21.70
2022-09-14T21:36:34.041Z,21.60
2022-09-14T21:39:03.519Z,21.60
2022-09-14T21:41:31.492Z,21.70
2022-09-14T21:43:58.654Z,21.60
2022-09-14T21:46:26.429Z,21.60
2022-09-14T21:48:54.549Z,21.60
2022-09-14T21:51:24.171Z,21.60
2022-09-14T21:53:55.017Z,21.60
2022-09-14T21:56:28.616Z,21.70
2022-09-14T21:58:58.422Z,21.60
2022-09-14T22:01:26.319Z,21.60
2022-09-14T22:03:54.560Z,21.70
2022-09-14T22:06:24.233Z,21.60
2022-09-14T22:08:52.223Z,21.70
2022-09-14T22:11:23.338Z,21.60
2022-09-14T22:13:54.889Z,21.60
2022-09-14T22:16:23.045Z,21.60
2022-09-14T22:18:58.759Z,21.50
2022-09-14T22:21:28.152Z,21.50
2022-09-14T22:24:00.081Z,21.60
2022-09-14T22:26:29.025Z,21.60
2022-09-14T22:28:57.362Z,21.50
2022-09-14T22:31:25.563Z,21.50
2022-09-14T22:33:55.152Z,21.50
2022-09-14T22:36:22.817Z,21.50
2022-09-14T22:38:49.589Z,21.50
2022-09-14T22:41:20.773Z,21.50
2022-09-14T22:43:48.446Z,21.50
2022-09-14T22:46:16.627Z,21.50
2022-09-14T22:48:44.114Z,21.40
2022-09-14T22:51:14.464Z,21.40
2022-09-14T22:53:41.723Z,21.40
2022-09-14T22:56:18.075Z,21.40
2022-09-14T22:58:46.446Z,21.40
2022-09-14T23:01:16.908Z,21.40
2022-09-14T23:03:44.002Z,21.50
2022-09-14T23:06:11.541Z,21.40
2022-09-14T23:08:38.485Z,21.50
2022-09-14T23:11:11.943Z,21.40
2022-09-14T23:13:42.371Z,21.50
2022-09-14T23:16:15.287Z,21.50
2022-09-14T23:18:42.404Z,21.50
2022-09-14T23:21:10.115Z,21.50
2022-09-14T23:23:38.197Z,21.50
2022-09-14T23:26:10.262Z,21.60
2022-09-14T23:28:37.781Z,21.50
2022-09-14T23:31:05.812Z,21.60
2022-09-14T23:33:34.137Z,21.60
2022-09-14T23:36:00.902Z,21.60
2022-09-14T23:38:28.032Z,21.50
2022-09-14T23:40:54.807Z,21.60
2022-09-14T23:43:21.678Z,21.60
2022-09-14T23:45:48.849Z,21.60
2022-09-14T23:48:15.797Z,21.60
2022-09-14T23:50:43.041Z,21.60
2022-09-14T23:53:09.810Z,21.60
2022-09-14T23:55:36.919Z,21.60
2022-09-14T23:58:04.171Z,21.60
